createdAt,value
2022-10-02T00:01:48.576Z,100717.22
2022-10-02T00:04:26.251Z,100712.78
2022-10-02T00:07:05.772Z,100706.69
2022-10-02T00:09:44.292Z,100711.19
2022-10-02T00:12:26.552Z,100704.28
2022-10-02T00:15:03.061Z,100700.63
2022-10-02T00:17:43.047Z,100698.56
2022-10-02T00:20:18.342Z,100695.75
2022-10-02T00:22:59.424Z,100691.72
2022-10-02T00:25:38.100Z,100702.72
2022-10-02T00:28:24.133Z,100700.25
2022-10-02T00:31:23.423Z,100701.91
2022-10-02T00:34:14.353Z,100702.31
2022-10-02T00:37:03.357Z,100706.38
2022-10-02T00:39:58.876Z,100704.38
2022-10-02T00:43:04.728Z,100711.28
2022-10-02T00:46:04.573Z,100699.50
2022-10-02T00:48:59.757Z,100711.28
2022-10-02T00:51:51.897Z,100702.34
2022-10-02T00:54:56.230Z,100711.31
2022-10-02T00:57:50.052Z,100701.56
2022-10-02T01:00:23.508Z,100708.91
2022-10-02T01:03:13.843Z,100709.31
2022-10-02T01:05:44.901Z,100705.66
2022-10-02T01:08:15.735Z,100718.28
2022-10-02T01:10:47.315Z,100718.69
2022-10-02T01:13:18.281Z,100719.13
2022-10-02T01:15:55.412Z,100714.22
2022-10-02T01:18:27.355Z,100724.81
2022-10-02T01:21:08.040Z,100723.59
2022-10-02T01:23:47.703Z,100736.59
2022-10-02T01:26:20.406Z,100723.59
2022-10-02T01:28:51.479Z,100730.06
2022-10-02T01:31:22.930Z,100725.59
2022-10-02T01:33:54.015Z,100728.03
2022-10-02T01:36:26.166Z,100722.34
2022-10-02T01:38:57.303Z,100727.69
2022-10-02T01:41:30.560Z,100730.13
2022-10-02T01:44:04.651Z,100724.03
2022-10-02T01:46:42.087Z,100718.78
2022-10-02T01:49:34.698Z,100724.47
2022-10-02T01:52:33.030Z,100717.53
2022-10-02T01:55:24.722Z,100715.53
2022-10-02T01:58:18.965Z,100709.84
2022-10-02T02:01:06.374Z,100713.09
2022-10-02T02:03:56.064Z,100699.69
2022-10-02T02:06:36.325Z,100708.66
2022-10-02T02:09:19.779Z,100708.66
2022-10-02T02:12:00.526Z,100705.41
2022-10-02T02:14:38.583Z,100702.19
2022-10-02T02:17:15.522Z,100700.59
2022-10-02T02:19:55.508Z,100699.38
2022-10-02T02:22:32.768Z,100705.06
2022-10-02T02:25:10.955Z,100706.69
2022-10-02T02:27:48.373Z,100705.88
2022-10-02T02:30:23.267Z,100700.59
2022-10-02T02:32:59.383Z,100699.78
2022-10-02T02:35:36.961Z,100688.44
2022-10-02T02:38:15.103Z,100699.41
2022-10-02T02:40:49.439Z,100696.19
2022-10-02T02:43:27.206Z,100694.56
2022-10-02T02:46:05.390Z,100695.38
2022-10-02T02:48:42.204Z,100702.28
2022-10-02T02:51:20.567Z,100701.47
2022-10-02T02:54:00.001Z,100699.03
2022-10-02T02:56:35.312Z,100705.56
2022-10-02T02:59:14.008Z,100697.81
2022-10-02T03:01:46.028Z,100690.50
2022-10-02T03:04:17.534Z,100701.88
2022-10-02T03:06:50.994Z,100704.31
2022-10-02T03:09:24.966Z,100704.75
2022-10-02T03:12:12.338Z,100712.09
2022-10-02T03:15:13.517Z,100720.22
2022-10-02T03:18:21.469Z,100713.31
2022-10-02T03:21:06.421Z,100707.66
2022-10-02T03:23:48.003Z,100710.88
2022-10-02T03:26:24.019Z,100707.25
2022-10-02T03:28:58.111Z,100705.22
2022-10-02T03:31:33.058Z,100695.91
2022-10-02T03:34:07.901Z,100709.28
2022-10-02T03:36:39.371Z,100701.97
2022-10-02T03:39:24.675Z,100700.34
2022-10-02T03:41:56.668Z,100699.97
2022-10-02T03:44:27.460Z,100690.63
2022-10-02T03:46:57.806Z,100699.16
2022-10-02T03:49:31.227Z,100704.84
2022-10-02T03:52:01.503Z,100702.41
2022-10-02T03:54:38.135Z,100705.25
2022-10-02T03:57:14.031Z,100706.06
2022-10-02T03:59:52.878Z,100703.22
2022-10-02T04:02:35.714Z,100699.97
2022-10-02T04:05:22.217Z,100710.09
2022-10-02T04:08:00.323Z,100712.94
2022-10-02T04:10:42.554Z,100707.69
2022-10-02T04:13:19.071Z,100707.69
2022-10-02T04:16:01.010Z,100712.94
2022-10-02T04:18:41.217Z,100717.03
2022-10-02T04:21:28.687Z,100721.47
2022-10-02T04:24:07.438Z,100720.25
2022-10-02T04:26:44.537Z,100720.66
2022-10-02T04:29:24.458Z,100721.06
2022-10-02T04:32:08.455Z,100714.94
2022-10-02T04:34:38.670Z,100719.03
2022-10-02T04:37:42.919Z,100716.97
2022-10-02T04:40:38.277Z,100719.78
2022-10-02T04:43:32.992Z,100727.06
2022-10-02T04:46:24.526Z,100717.72
2022-10-02T04:49:42.054Z,100720.94
2022-10-02T04:52:32.892Z,100724.56
2022-10-02T04:55:39.774Z,100717.25
2022-10-02T04:58:35.659Z,100718.81
2022-10-02T05:01:22.827Z,100721.22
2022-10-02T05:04:33.524Z,100722.00
2022-10-02T05:07:36.476Z,100726.44
2022-10-02T05:10:28.869Z,100720.72
2022-10-02T05:13:15.562Z,100715.00
2022-10-02T05:16:05.330Z,100712.91
2022-10-02T05:19:15.162Z,100711.22
2022-10-02T05:22:22.283Z,100707.09
2022-10-02T05:25:16.000Z,100707.81
2022-10-02T05:28:09.809Z,100707.72
2022-10-02T05:30:52.524Z,100724.72
2022-10-02T05:33:48.588Z,100714.50
2022-10-02T05:36:48.432Z,100705.03
2022-10-02T05:39:25.547Z,100711.44
2022-10-02T05:42:10.588Z,100721.53
2022-10-02T05:44:47.265Z,100720.69
2022-10-02T05:47:24.660Z,100723.09
2022-10-02T05:50:01.436Z,100721.38
2022-10-02T05:52:41.587Z,100727.81
2022-10-02T05:55:22.981Z,100728.97
2022-10-02T05:58:04.440Z,100726.88
2022-10-02T06:00:42.942Z,100732.47
2022-10-02T06:03:22.877Z,100732.75
2022-10-02T06:06:00.245Z,100730.22
2022-10-02T06:08:37.325Z,100734.59
2022-10-02T06:11:14.574Z,100721.44
2022-10-02T06:13:53.525Z,100722.94
2022-10-02T06:16:32.550Z,100720.81
2022-10-02T06:19:14.316Z,100720.66
2022-10-02T06:21:54.490Z,100717.63
2022-10-02T06:24:32.933Z,100722.00
2022-10-02T06:27:13.178Z,100719.41
2022-10-02T06:29:54.333Z,100714.41
2022-10-02T06:32:36.528Z,100708.56
2022-10-02T06:35:15.821Z,100712.56
2022-10-02T06:38:07.485Z,100704.22
2022-10-02T06:40:58.073Z,100703.31
2022-10-02T06:44:03.809Z,100703.13
2022-10-02T06:46:51.297Z,100702.94
2022-10-02T06:49:39.721Z,100707.66
2022-10-02T06:52:33.305Z,100698.09
2022-10-02T06:55:31.673Z,100699.22
2022-10-02T06:58:23.406Z,100700.34
2022-10-02T07:01:07.163Z,100693.22
2022-10-02T07:04:07.481Z,100695.97
2022-10-02T07:06:59.040Z,100698.66
2022-10-02T07:10:31.906Z,100695.66
2022-10-02T07:13:36.798Z,100698.38
2022-10-02T07:16:39.249Z,100693.28
2022-10-02T07:19:41.636Z,100678.50
2022-10-02T07:22:44.603Z,100687.38
2022-10-02T07:25:51.329Z,100683.97
2022-10-02T07:28:32.941Z,100678.53
2022-10-02T07:31:12.162Z,100676.31
2022-10-02T07:34:03.049Z,100672.03
2022-10-02T07:36:54.938Z,100668.56
2022-10-02T07:39:44.329Z,100662.69
2022-10-02T07:42:47.062Z,100661.69
2022-10-02T07:45:35.440Z,100658.66
2022-10-02T07:48:31.048Z,100643.81
2022-10-02T07:51:50.570Z,100650.59
2022-10-02T07:55:02.306Z,100639.84
2022-10-02T07:57:42.605Z,100632.31
2022-10-02T08:00:17.470Z,100637.50
2022-10-02T08:02:54.138Z,100633.22
2022-10-02T08:05:30.318Z,100632.66
2022-10-02T08:08:07.568Z,100628.00
2022-10-02T08:10:49.122Z,100631.09
2022-10-02T08:13:26.132Z,100627.72
2022-10-02T08:15:59.543Z,100627.13
2022-10-02T08:18:39.035Z,100627.38
2022-10-02T08:21:18.326Z,100624.78
2022-10-02T08:23:59.588Z,100630.78
2022-10-02T08:26:38.992Z,100624.94
2022-10-02T08:29:17.650Z,100616.25
2022-10-02T08:31:48.473Z,100629.69
2022-10-02T08:34:24.783Z,100619.38
2022-10-02T08:37:29.959Z,100622.56
2022-10-02T08:40:58.009Z,100618.91
2022-10-02T08:44:27.522Z,100623.41
2022-10-02T08:48:00.142Z,100625.81
2022-10-02T08:51:30.516Z,100617.53
2022-10-02T08:54:52.192Z,100615.81
2022-10-02T08:57:59.102Z,100623.19
2022-10-02T09:00:42.268Z,100617.78
2022-10-02T09:04:31.637Z,100616.97
2022-10-02T09:08:16.809Z,100601.00
2022-10-02T09:11:53.538Z,100602.31
2022-10-02T09:14:58.758Z,100601.47
2022-10-02T09:18:00.350Z,100594.84
2022-10-02T09:20:56.464Z,100595.63
2022-10-02T09:24:12.922Z,100585.09
2022-10-02T09:27:36.355Z,100581.50
2022-10-02T09:31:09.537Z,100573.69
2022-10-02T09:34:26.366Z,100584.03
2022-10-02T09:37:39.187Z,100568.06
2022-10-02T09:40:58.947Z,100561.88
2022-10-02T09:44:25.168Z,100563.50
2022-10-02T09:47:50.407Z,100564.75
2022-10-02T09:51:06.377Z,100561.06
2022-10-02T09:54:33.343Z,100552.47
2022-10-02T09:57:54.404Z,100544.78
2022-10-02T10:01:13.797Z,100539.50
2022-10-02T10:05:04.013Z,100522.38
2022-10-02T10:08:16.403Z,100527.34
2022-10-02T10:11:31.653Z,100520.31
2022-10-02T10:15:00.333Z,100514.56
2022-10-02T10:18:10.826Z,100502.31
2022-10-02T10:21:30.314Z,100502.78
2022-10-02T10:24:44.021Z,100500.81
2022-10-02T10:27:53.877Z,100497.16
2022-10-02T10:30:58.703Z,100498.41
2022-10-02T10:34:20.322Z,100486.59
2022-10-02T10:37:20.031Z,100480.03
2022-10-02T10:40:40.723Z,100483.84
2022-10-02T10:44:14.840Z,100470.91
2022-10-02T10:47:35.042Z,100469.09
2022-10-02T10:50:45.648Z,100463.13
2022-10-02T10:54:26.615Z,100458.75
2022-10-02T10:57:08.396Z,100452.69
2022-10-02T11:00:12.484Z,100455.41
2022-10-02T11:03:45.975Z,100460.91
2022-10-02T11:07:03.365Z,100451.19
2022-10-02T11:10:11.612Z,100443.53
2022-10-02T11:13:27.470Z,100448.91
2022-10-02T11:16:27.774Z,100449.13
2022-10-02T11:19:44.484Z,100449.00
2022-10-02T11:23:19.945Z,100450.69
2022-10-02T11:26:29.839Z,100444.16
2022-10-02T11:29:28.461Z,100433.84
2022-10-02T11:32:34.220Z,100428.94
2022-10-02T11:35:26.442Z,100426.50
2022-10-02T11:38:47.280Z,100430.63
2022-10-02T11:41:47.225Z,100429.84
2022-10-02T11:45:03.175Z,100428.22
2022-10-02T11:48:09.717Z,100426.25
2022-10-02T11:51:18.369Z,100420.97
2022-10-02T11:54:18.946Z,100418.13
2022-10-02T11:57:33.546Z,100408.81
2022-10-02T12:00:36.442Z,100404.34
2022-10-02T12:03:23.100Z,100403.56
2022-10-02T12:06:08.760Z,100402.41
2022-10-02T12:09:00.450Z,100395.84
2022-10-02T12:11:43.469Z,100396.31
2022-10-02T12:14:36.447Z,100390.22
2022-10-02T12:17:32.620Z,100393.16
2022-10-02T12:20:36.963Z,100401.88
2022-10-02T12:23:43.353Z,100394.75
2022-10-02T12:26:46.229Z,100389.19
2022-10-02T12:29:28.055Z,100393.09
2022-10-02T12:32:09.052Z,100398.88
2022-10-02T12:35:02.636Z,100395.31
2022-10-02T12:37:46.511Z,100388.88
2022-10-02T12:40:28.121Z,100395.53
2022-10-02T12:43:44.237Z,100389.44
2022-10-02T12:46:55.931Z,100390.75
2022-10-02T12:49:46.058Z,100375.28
2022-10-02T12:52:58.690Z,100382.34
2022-10-02T12:56:09.275Z,100378.44
2022-10-02T12:59:02.592Z,100379.78
2022-10-02T13:02:56.126Z,100368.53
2022-10-02T13:06:13.787Z,100369.50
2022-10-02T13:09:18.897Z,100368.38
2022-10-02T13:12:13.535Z,100361.47
2022-10-02T13:15:37.955Z,100366.03
2022-10-02T13:18:39.017Z,100361.56
2022-10-02T13:21:22.665Z,100356.28
2022-10-02T13:24:18.147Z,100353.06
2022-10-02T13:26:59.660Z,100353.13
2022-10-02T13:29:53.857Z,100348.31
2022-10-02T13:33:08.773Z,100352.88
2022-10-02T13:36:09.667Z,100354.56
2022-10-02T13:39:16.573Z,100368.13
2022-10-02T13:42:15.080Z,100359.66
2022-10-02T13:45:00.840Z,100363.75
2022-10-02T13:47:44.848Z,100361.34
2022-10-02T13:50:40.237Z,100359.75
2022-10-02T13:53:42.327Z,100364.38
2022-10-02T13:56:36.447Z,100359.56
2022-10-02T13:59:40.232Z,100353.47
2022-10-02T14:02:46.955Z,100353.94
2022-10-02T14:05:36.830Z,100349.88
2022-10-02T14:08:35.807Z,100346.69
2022-10-02T14:11:30.549Z,100354.09
2022-10-02T14:14:20.563Z,100339.47
2022-10-02T14:17:07.498Z,100343.19
2022-10-02T14:20:21.205Z,100336.31
2022-10-02T14:23:20.692Z,100333.16
2022-10-02T14:26:08.563Z,100335.66
2022-10-02T14:29:11.816Z,100333.25
2022-10-02T14:32:24.309Z,100330.03
2022-10-02T14:35:12.359Z,100322.31
2022-10-02T14:38:10.239Z,100322.78
2022-10-02T14:40:53.827Z,100326.06
2022-10-02T14:44:06.990Z,100312.69
2022-10-02T14:47:02.004Z,100329.88
2022-10-02T14:49:53.023Z,100318.13
2022-10-02T14:52:57.337Z,100328.81
2022-10-02T14:55:49.720Z,100323.19
2022-10-02T14:58:40.714Z,100327.28
2022-10-02T15:01:24.995Z,100323.28
2022-10-02T15:04:33.240Z,100324.97
2022-10-02T15:07:10.455Z,100325.38
2022-10-02T15:10:04.102Z,100328.25
2022-10-02T15:12:51.998Z,100328.69
2022-10-02T15:15:36.554Z,100320.13
2022-10-02T15:18:33.342Z,100325.47
2022-10-02T15:21:21.619Z,100321.44
2022-10-02T15:23:53.331Z,100323.91
2022-10-02T15:26:51.947Z,100328.00
2022-10-02T15:29:37.794Z,100323.16
2022-10-02T15:32:38.847Z,100325.69
2022-10-02T15:35:28.441Z,100321.22
2022-10-02T15:38:32.140Z,100315.13
2022-10-02T15:41:40.381Z,100309.50
2022-10-02T15:44:53.484Z,100314.06
2022-10-02T15:47:51.028Z,100310.47
2022-10-02T15:50:35.892Z,100309.66
2022-10-02T15:53:43.730Z,100308.47
2022-10-02T15:56:47.793Z,100314.63
2022-10-02T15:59:42.014Z,100313.47
2022-10-02T16:03:06.504Z,100322.91
2022-10-02T16:06:10.493Z,100319.69
2022-10-02T16:09:33.112Z,100331.19
2022-10-02T16:12:28.627Z,100323.06
2022-10-02T16:15:19.594Z,100324.69
2022-10-02T16:18:27.005Z,100329.56
2022-10-02T16:21:39.593Z,100329.63
2022-10-02T16:24:43.784Z,100325.16
2022-10-02T16:27:33.045Z,100330.88
2022-10-02T16:30:14.055Z,100326.00
2022-10-02T16:33:21.402Z,100336.59
2022-10-02T16:36:18.169Z,100336.22
2022-10-02T16:38:55.561Z,100340.00
2022-10-02T16:41:38.992Z,100349.84
2022-10-02T16:44:46.075Z,100350.38
2022-10-02T16:47:28.517Z,100349.19
2022-10-02T16:50:07.578Z,100360.16
2022-10-02T16:52:51.795Z,100363.81
2022-10-02T16:55:34.276Z,100365.41
2022-10-02T16:58:22.231Z,100363.41
2022-10-02T17:00:59.797Z,100365.00
2022-10-02T17:03:37.624Z,100363.78
2022-10-02T17:06:20.639Z,100356.81
2022-10-02T17:09:06.290Z,100358.06
2022-10-02T17:11:52.288Z,100349.91
2022-10-02T17:14:31.627Z,100355.25
2022-10-02T17:17:12.973Z,100350.81
2022-10-02T17:19:51.614Z,100347.13
2022-10-02T17:22:36.569Z,100347.13
2022-10-02T17:25:27.365Z,100349.63
2022-10-02T17:28:11.294Z,100354.97
2022-10-02T17:31:17.956Z,100356.63
2022-10-02T17:33:54.943Z,100351.38
2022-10-02T17:36:37.829Z,100350.22
2022-10-02T17:39:43.590Z,100353.13
2022-10-02T17:42:35.862Z,100353.53
2022-10-02T17:45:36.303Z,100358.88
2022-10-02T17:48:42.629Z,100357.25
2022-10-02T17:51:52.419Z,100349.16
2022-10-02T17:55:12.604Z,100349.97
2022-10-02T17:58:01.536Z,100349.97
2022-10-02T18:00:42.361Z,100349.97
2022-10-02T18:03:37.384Z,100354.06
2022-10-02T18:06:23.537Z,100349.59
2022-10-02T18:09:34.397Z,100348.44
2022-10-02T18:12:53.415Z,100342.34
2022-10-02T18:15:58.917Z,100341.19
2022-10-02T18:18:40.823Z,100341.59
2022-10-02T18:21:31.596Z,100337.94
2022-10-02T18:24:25.393Z,100339.19
2022-10-02T18:27:26.998Z,100335.50
2022-10-02T18:30:18.556Z,100329.81
2022-10-02T18:33:36.182Z,100330.69
2022-10-02T18:36:28.320Z,100322.56
2022-10-02T18:39:09.608Z,100325.00
2022-10-02T18:42:01.873Z,100324.63
2022-10-02T18:44:57.771Z,100314.44
2022-10-02T18:48:00.691Z,100318.50
2022-10-02T18:50:54.304Z,100326.69
2022-10-02T18:53:48.967Z,100328.75
2022-10-02T18:56:39.849Z,100321.44
2022-10-02T18:59:26.054Z,100324.72
2022-10-02T19:02:20.918Z,100319.81
2022-10-02T19:05:29.253Z,100332.06
2022-10-02T19:08:20.349Z,100321.91
2022-10-02T19:10:51.015Z,100318.28
2022-10-02T19:13:29.353Z,100314.97
2022-10-02T19:16:01.893Z,100312.94
2022-10-02T19:18:33.475Z,100316.59
2022-10-02T19:21:10.746Z,100314.56
2022-10-02T19:23:52.266Z,100312.50
2022-10-02T19:26:27.915Z,100314.19
2022-10-02T19:29:03.368Z,100311.34
2022-10-02T19:31:41.858Z,100312.56
2022-10-02T19:34:33.564Z,100310.97
2022-10-02T19:37:09.540Z,100300.78
2022-10-02T19:39:51.801Z,100299.19
2022-10-02T19:42:29.297Z,100297.56
2022-10-02T19:45:04.509Z,100297.56
2022-10-02T19:47:44.650Z,100294.72
2022-10-02T19:50:23.844Z,100290.25
2022-10-02T19:53:00.297Z,100288.66
2022-10-02T19:55:39.093Z,100291.13
2022-10-02T19:58:18.302Z,100291.56
2022-10-02T20:00:50.060Z,100286.75
2022-10-02T20:03:24.273Z,100284.75
2022-10-02T20:06:00.738Z,100289.66
2022-10-02T20:08:35.329Z,100286.44
2022-10-02T20:11:13.495Z,100284.00
2022-10-02T20:13:49.730Z,100285.69
2022-10-02T20:16:42.451Z,100280.88
2022-10-02T20:19:21.954Z,100279.66
2022-10-02T20:21:56.749Z,100288.22
2022-10-02T20:24:44.404Z,100283.34
2022-10-02T20:27:25.276Z,100280.09
2022-10-02T20:30:03.967Z,100280.09
2022-10-02T20:32:42.740Z,100276.44
2022-10-02T20:35:20.851Z,100282.97
2022-10-02T20:37:56.152Z,100279.28
2022-10-02T20:40:33.057Z,100275.66
2022-10-02T20:43:18.398Z,100269.94
2022-10-02T20:46:10.021Z,100264.69
2022-10-02T20:49:22.918Z,100261.91
2022-10-02T20:52:31.734Z,100263.16
2022-10-02T20:55:12.077Z,100258.69
2022-10-02T20:58:14.957Z,100258.31
2022-10-02T21:01:09.547Z,100255.03
2022-10-02T21:07:15.429Z,100256.72
2022-10-02T21:10:32.700Z,100258.41
2022-10-02T21:13:44.516Z,100255.16
2022-10-02T21:17:37.932Z,100262.97
2022-10-02T21:21:15.352Z,100255.31
2022-10-02T21:24:23.404Z,100247.16
2022-10-02T21:27:39.361Z,100249.22
2022-10-02T21:30:20.225Z,100249.22
2022-10-02T21:33:07.302Z,100250.47
2022-10-02T21:35:53.776Z,100246.78
2022-10-02T21:39:14.430Z,100246.84
2022-10-02T21:43:02.402Z,100251.81
2022-10-02T21:46:23.584Z,100252.66
2022-10-02T21:49:56.383Z,100252.72
2022-10-02T21:53:25.668Z,100250.31
2022-10-02T21:56:52.513Z,100245.09
2022-10-02T22:00:22.595Z,100239.91
2022-10-02T22:03:40.070Z,100238.28
2022-10-02T22:06:50.038Z,100241.53
2022-10-02T22:09:38.795Z,100233.00
2022-10-02T22:12:31.500Z,100238.28
2022-10-02T22:15:17.494Z,100230.97
2022-10-02T22:18:01.102Z,100240.31
2022-10-02T22:21:01.462Z,100236.69
2022-10-02T22:24:01.653Z,100233.44
2022-10-02T22:27:15.801Z,100233.06
2022-10-02T22:29:52.140Z,100223.75
2022-10-02T22:33:10.777Z,100228.56
2022-10-02T22:36:30.375Z,100230.31
2022-10-02T22:39:12.020Z,100224.22
2022-10-02T22:41:56.971Z,100225.47
2022-10-02T22:44:37.335Z,100221.81
2022-10-02T22:47:17.778Z,100217.78
2022-10-02T22:49:54.057Z,100215.38
2022-10-02T22:52:31.324Z,100208.88
2022-10-02T22:55:11.058Z,100205.22
2022-10-02T22:57:50.855Z,100201.19
2022-10-02T23:00:24.198Z,100206.09
2022-10-02T23:03:04.449Z,100209.34
2022-10-02T23:05:44.648Z,100209.78
2022-10-02T23:08:32.641Z,100207.34
2022-10-02T23:11:16.048Z,100197.25
2022-10-02T23:13:55.042Z,100199.25
2022-10-02T23:16:35.602Z,100202.53
2022-10-02T23:19:15.326Z,100205.00
2022-10-02T23:21:52.127Z,100201.78
2022-10-02T23:24:32.767Z,100202.63
2022-10-02T23:27:22.168Z,100192.13
2022-10-02T23:30:01.779Z,100189.34
2022-10-02T23:32:46.335Z,100197.88
2022-10-02T23:35:28.433Z,100189.81
2022-10-02T23:38:09.996Z,100184.97
2022-10-02T23:41:20.768Z,100191.09
2022-10-02T23:44:05.157Z,100185.41
2022-10-02T23:46:56.231Z,100181.41
2022-10-02T23:49:34.340Z,100178.16
2022-10-02T23:52:38.749Z,100168.47
2022-10-02T23:55:27.497Z,100170.53
2022-10-02T23:58:37.764Z,100176.28
